METAR rapporter

 

EKCH - Copenhagen/Kastr, Denmark
Afstand til vejrstation: SØ 11km
Opdateret: 25/03/2019 00:50
Mest skyet
Mest skyet
 Vind retning SV
Vind: SV 26 km/h
Temperatur: 5°C
Kuldeindeks: 1°C
Dugpunkt: 3°C
Fugtighed: 87%
Barometer: 1011 hPa
Skyer: Mest skyet
Sigtbarhed: 10 km
Sky detaljer: Mest skyet 2957 m
2019/03/24 23:50 EKCH 242350Z AUTO 23014KT 9999NDV BKN097/// 05/03 Q1011 TEMPO 4000 SHRAGS BKN008 SCT020CB
EKRK - Copenhagen/Roski, Denmark
Afstand til vejrstation: VSV 29km
Opdateret: 25/03/2019 00:50
Mest skyet
Mest skyet
 Vind retning SV
Vind: SV 20 km/h
Temperatur: 4°C
Kuldeindeks: -1°C
Dugpunkt: 2°C
Fugtighed: 87%
Barometer: 1011 hPa
Skyer: Mest skyet
Sigtbarhed: 10 km
Sky detaljer: Få skyer 853 m
Delvist skyet 1829 m
Mest skyet 2286 m
Mest skyet 3962 m
2019/03/24 23:50 EKRK 242350Z AUTO 23011KT 9999NDV FEW028/// SCT060/// BKN075/// BKN130/// 04/02 Q1011